Date,TemperatureHighF,TemperatureAvgF,TemperatureLowF,DewpointHighF,DewpointAvgF,DewpointLowF,HumidityHigh,HumidityAvg,HumidityLow,PressureMaxIn,PressureMinIn,WindSpeedMaxMPH,WindSpeedAvgMPH,GustSpeedMaxMPH,PrecipitationSumIn
2013-1-1,37.9,36.2,34.3,28.7,23.7,18.5,70,61,49,0.00,40.00,9,2,10,0.31
2013-1-2,38.5,32.7,27.0,22.4,3.3,-6.4,63,31,16,0.00,40.00,8,2,10,0.31
2013-1-3,42.1,30.3,23.2,15.5,3.3,-6.8,57,35,16,0.00,40.00,10,2,14,0.31
2013-1-4,40.3,31.7,23.9,12.6,2.6,-3.9,53,31,16,29.65,29.65,13,3,17,0.31
2013-1-5,47.5,34.8,22.5,14.9,4.8,-1.6,61,33,14,29.65,29.47,10,2,10,0.31
2013-1-6,46.2,41.0,32.2,6.6,1.1,-3.5,26,18,16,29.62,29.32,17,6,20,0.00
2013-1-7,46.9,33.9,26.8,11.1,2.6,-4.7,45,28,14,29.71,29.50,12,2,12,0.31
2013-1-8,57.6,38.7,24.8,20.1,9.3,0.4,62,34,12,29.62,29.50,11,3,11,0.31
2013-1-9,55.9,45.9,36.3,42.5,28.2,15.7,67,50,32,29.74,29.50,10,1,10,0.31
2013-1-10,55.9,47.8,39.6,35.9,27.8,23.9,70,48,31,29.77,29.35,17,6,17,0.31
2013-1-11,68.2,61.5,53.4,47.4,34.1,21.9,63,37,25,29.35,29.23,24,6,24,0.43
2013-1-12,69.3,63.0,52.2,53.9,44.7,29.8,71,53,23,29.35,29.18,14,4,14,0.31
2013-1-13,68.7,61.1,40.1,49.8,36.3,22.0,67,43,17,29.41,29.15,29,6,29,0.94
2013-1-14,40.1,35.1,32.2,25.7,13.2,5.8,56,41,30,29.65,29.41,17,4,17,0.31
2013-1-15,36.3,33.7,31.1,22.5,15.0,10.2,61,46,35,29.56,29.23,17,3,17,0.31
2013-1-16,37.0,35.5,34.2,26.6,23.8,18.6,68,62,51,29.38,29.21,13,2,17,0.43
2013-1-17,37.4,35.0,30.4,22.9,13.2,6.9,57,41,31,29.62,29.32,13,2,18,0.00
2013-1-18,31.5,27.4,24.4,18.0,13.9,11.0,58,56,54,29.77,29.62,5,1,5,0.31
2013-1-19,52.5,46.7,27.0,13.0,4.8,2.5,55,21,13,29.77,29.32,15,6,15,0.31
2013-1-20,50.2,43.0,28.2,5.4,-0.6,-9.8,21,16,14,29.47,29.32,17,5,17,0.00
2013-1-21,34.7,28.1,21.0,5.8,-6.0,-13.8,43,23,17,29.50,29.35,26,6,26,0.00
2013-1-22,23.7,18.3,12.7,-12.1,-15.5,-18.9,22,21,19,29.65,29.50,15,6,15,0.00
2013-1-23,37.9,25.0,13.6,1.2,-10.8,-18.6,30,20,16,29.62,29.32,10,2,10,0.00
2013-1-24,30.7,25.3,20.7,-5.6,-10.9,-14.1,20,19,18,29.80,29.35,26,5,26,0.00
2013-1-25,32.2,26.9,22.3,20.6,4.7,-12.9,62,42,19,29.65,29.29,16,5,16,0.00
2013-1-26,34.9,27.8,21.6,17.6,9.8,4.0,59,47,27,29.68,29.44,6,1,6,0.04
2013-1-27,45.3,34.1,19.9,27.2,10.3,1.0,63,40,18,29.68,29.47,13,4,14,0.12
2013-1-28,60.8,55.1,45.3,33.0,20.5,6.9,40,27,15,29.47,29.35,27,6,27,0.16
2013-1-29,72.1,64.5,56.8,31.9,25.3,18.5,34,23,14,29.38,29.00,23,7,23,0.00
2013-1-30,71.8,58.6,37.4,46.9,29.7,8.1,65,36,16,29.00,28.67,29,8,29,1.18
2013-1-31,37.2,34.6,25.3,18.3,2.2,-5.7,53,26,17,29.23,28.91,44,9,44,0.00
2013-2-1,25.0,17.5,11.5,9.9,-13.9,-20.0,53,24,19,29.71,29.23,28,7,28,0.00
2013-2-2,35.6,27.8,16.7,22.2,3.5,-13.1,62,36,22,29.62,29.29,13,4,13,0.04
2013-2-3,33.4,31.8,28.8,14.2,7.6,3.6,48,36,30,29.41,29.21,24,5,24,0.00
2013-2-4,52.9,37.3,22.3,27.3,7.2,-2.0,55,32,13,29.41,29.12,18,5,18,0.12
2013-2-5,54.7,48.0,44.2,26.1,14.7,3.2,48,28,13,29.29,29.15,17,5,17,0.00
2013-2-6,52.3,39.7,28.0,24.2,9.9,-0.2,57,32,14,29.50,29.29,11,2,11,0.00
2013-2-7,65.8,49.6,36.1,14.8,8.1,2.5,40,19,12,29.44,29.15,12,4,13,0.00
2013-2-8,54.0,42.7,36.0,34.8,15.2,7.1,59,33,15,29.56,29.09,20,6,20,0.12
2013-2-9,50.2,39.2,29.5,11.3,0.7,-4.7,36,20,14,29.65,29.44,13,4,13,0.00
2013-2-10,60.6,46.3,32.0,24.5,7.0,-6.4,40,21,12,29.47,29.15,25,7,25,0.12
2013-2-11,59.9,54.7,43.5,31.3,11.8,-1.1,35,19,12,29.38,29.15,26,8,26,0.00
2013-2-12,53.6,42.5,28.9,14.9,3.1,-4.8,48,21,13,29.44,29.15,10,2,10,0.00
2013-2-13,40.5,37.3,30.4,23.8,15.1,5.3,61,41,23,29.23,29.00,16,2,16,0.08
2013-2-14,57.0,41.7,26.8,24.5,11.9,0.4,71,36,12,29.26,29.18,19,4,19,0.00
2013-2-15,41.7,36.5,31.5,24.0,16.1,1.7,60,44,25,29.41,29.23,15,2,15,0.00
2013-2-16,34.5,29.6,23.7,8.9,-2.6,-12.2,47,26,17,29.38,29.29,23,5,23,0.00
2013-2-17,37.6,27.8,21.2,-2.3,-7.9,-11.9,33,20,16,29.50,29.38,17,4,17,0.00
2013-2-18,61.5,44.3,22.5,11.9,0.1,-12.5,32,16,12,29.50,29.09,22,7,23,0.00
2013-2-19,55.2,41.5,30.0,24.3,5.4,-8.5,56,23,13,29.41,29.06,35,9,35,0.16
2013-2-20,35.8,28.9,23.4,-4.8,-9.1,-12.8,22,18,17,29.53,29.38,17,5,17,0.00
2013-2-21,43.0,31.6,18.9,10.9,-4.1,-12.9,40,22,15,29.59,29.32,16,4,16,0.12
2013-2-22,62.4,48.4,33.6,30.6,18.6,9.2,58,35,14,29.35,29.15,23,5,23,0.20
2013-2-23,50.9,43.8,37.2,23.0,12.4,-2.5,49,30,14,29.26,29.15,11,3,11,0.00
2013-2-24,49.8,37.2,26.4,10.7,2.4,-4.7,43,24,14,29.38,29.21,12,2,12,0.00
2013-2-25,55.9,41.8,28.6,9.3,0.3,-6.2,41,18,12,29.38,29.12,19,6,19,0.00
2013-2-26,60.8,50.7,43.9,33.5,14.3,-0.8,43,24,14,29.12,28.64,26,8,26,0.20
2013-2-27,45.0,40.0,35.8,19.4,13.8,5.1,51,34,21,29.09,28.88,20,6,20,0.00
2013-2-28,36.9,34.8,33.1,25.2,13.8,7.0,66,42,31,29.23,29.03,18,6,18,0.00
2013-3-1,37.6,35.4,33.1,26.8,24.2,19.1,69,64,50,29.26,29.21,8,2,9,0.31
2013-3-2,33.6,30.6,27.5,23.5,10.4,-0.6,66,43,25,29.35,29.23,8,0,8,0.04
2013-3-3,34.0,29.3,24.1,15.3,2.8,-9.8,57,35,17,29.35,29.29,14,2,14,0.04
2013-3-4,48.9,34.7,19.2,10.0,1.0,-6.1,56,28,14,29.44,29.23,17,4,17,0.00
2013-3-5,49.8,42.1,32.4,38.6,18.8,-1.6,67,43,15,29.23,28.82,28,8,28,0.87
2013-3-6,33.3,31.8,30.0,18.4,14.3,11.0,58,48,40,29.53,29.03,15,7,20,0.00
2013-3-7,35.4,33.6,32.2,19.0,12.6,7.7,57,42,31,29.62,29.50,8,2,8,0.04
2013-3-8,49.3,36.9,26.2,21.2,8.0,-1.5,60,34,14,29.71,29.59,10,2,11,0.00
2013-3-9,68.5,47.9,27.9,17.2,9.7,-0.7,58,26,12,29.62,29.35,17,4,17,0.00
2013-3-10,74.7,64.0,50.2,16.7,11.1,2.5,15,12,11,29.35,29.15,18,6,18,0.00
2013-3-11,66.6,56.7,42.4,40.0,20.5,11.1,54,28,12,29.18,28.97,26,8,26,0.59
2013-3-12,49.1,41.5,36.9,20.0,7.8,0.3,49,26,14,29.32,29.18,15,5,15,0.00
2013-3-13,40.5,35.1,30.4,13.6,-0.7,-7.9,44,22,17,29.59,29.29,23,7,23,0.00
2013-3-14,46.0,34.7,23.5,2.4,-1.6,-7.4,37,22,15,29.65,29.47,15,4,15,0.00
2013-3-15,64.2,48.9,32.5,18.1,6.4,-4.9,35,18,12,29.50,29.09,17,4,17,0.00
2013-3-16,72.9,63.9,49.6,19.1,13.7,7.5,28,14,11,29.23,28.97,26,7,28,0.00
2013-3-17,49.6,41.8,38.3,25.9,20.5,15.9,59,43,28,29.35,29.21,14,4,14,0.16
2013-3-18,59.2,48.7,39.0,41.9,31.0,16.3,69,52,28,29.21,28.94,26,8,26,1.06
2013-3-19,51.3,43.8,38.1,16.3,5.5,-3.7,39,22,14,29.41,29.12,26,7,26,0.00
2013-3-20,49.1,37.0,25.9,6.6,-1.5,-9.8,38,20,14,29.41,29.18,28,6,28,0.00
2013-3-21,32.7,26.2,21.0,3.5,-9.7,-13.0,41,20,18,29.29,29.21,15,4,15,0.00
2013-3-22,46.9,32.3,16.7,4.3,-2.4,-12.9,45,24,14,29.29,29.29,13,2,13,0.00
2013-3-23,57.4,45.6,37.2,8.6,0.1,-4.7,19,15,12,29.29,29.29,17,2,17,0.00
2013-3-24,49.5,42.6,38.3,31.7,16.8,-1.6,66,41,14,29.29,29.29,16,4,16,0.39
2013-3-25,42.6,35.0,32.4,23.1,14.1,3.6,60,43,24,29.29,29.29,4,4,4,0.00
2013-3-26,40.6,35.6,33.1,23.5,14.7,0.2,66,45,18,29.29,29.29,4,4,4,0.00
2013-3-27,43.5,37.4,31.6,11.9,2.8,-4.7,40,24,15,29.29,29.29,4,4,4,0.00
2013-3-28,50.7,38.6,26.4,18.7,5.6,-3.8,54,28,14,29.29,29.29,4,4,4,0.00
2013-3-29,57.4,41.8,27.9,20.1,8.4,2.5,50,28,12,29.29,29.29,4,4,4,0.00
2013-3-30,64.4,47.5,31.1,28.6,14.9,6.9,64,33,13,29.29,29.29,4,4,4,0.00
2013-3-31,59.4,53.4,45.1,40.3,25.6,7.1,66,37,14,29.29,29.29,4,4,4,0.00
2013-4-1,52.7,46.8,38.3,38.2,12.8,-3.5,67,31,13,29.29,29.29,4,4,4,0.00
2013-4-2,50.7,39.1,27.1,11.9,1.1,-5.5,45,22,14,29.29,29.29,4,4,4,0.00
2013-4-3,53.8,40.6,25.5,12.7,1.9,-5.6,42,21,13,29.29,29.29,4,4,4,0.00
2013-4-4,53.1,46.0,40.3,22.2,3.5,-2.3,41,18,13,29.29,29.29,4,4,4,0.08
2013-4-5,65.8,50.0,33.8,32.5,15.4,0.4,64,31,12,29.29,29.29,4,4,4,0.00
2013-4-6,72.9,56.4,34.9,16.2,11.2,-0.2,42,19,11,29.29,29.29,4,4,4,0.00
2013-4-7,74.7,67.8,60.1,16.6,13.7,10.6,14,12,11,29.29,29.29,4,4,4,0.00
2013-4-9,83.7,76.8,63.7,31.7,19.2,14.4,30,12,9,0.00,0.00,0,0,0,0.00
2013-4-10,87.3,73.4,59.2,36.9,21.8,13.7,42,17,8,0.00,0.00,0,0,0,0.00
2013-4-11,82.4,72.7,59.2,48.4,22.9,14.9,67,21,9,0.00,0.00,0,0,0,0.67
2013-4-12,61.0,54.0,46.4,45.3,18.0,2.0,58,28,13,0.00,0.00,0,0,0,0.24
2013-4-13,64.2,51.5,38.1,22.4,11.0,3.4,51,21,13,0.00,0.00,0,0,0,0.00
2013-4-14,77.5,59.8,40.6,24.5,15.9,6.0,48,21,10,0.00,0.00,0,0,0,0.00
2013-4-15,77.5,65.4,57.6,32.4,22.6,12.8,36,22,10,0.00,0.00,0,0,0,0.00
2013-4-16,86.4,72.8,57.6,40.3,23.2,16.6,44,18,8,0.00,0.00,0,0,0,0.31
2013-4-17,73.0,66.2,62.2,52.7,41.6,31.3,67,43,22,0.00,0.00,0,0,0,2.01
2013-4-18,85.3,74.7,61.0,43.9,24.4,15.6,52,19,8,0.00,0.00,0,0,0,0.00
2013-4-19,76.5,54.9,43.3,45.5,16.7,2.5,59,26,10,0.00,0.00,0,0,0,0.71
2013-4-20,57.9,46.7,34.2,23.0,7.6,-0.2,50,22,12,0.00,0.00,0,0,0,0.00
2013-4-21,65.3,52.2,38.3,16.8,6.5,-2.5,40,16,12,0.00,0.00,0,0,0,0.00
2013-4-22,74.1,57.0,39.2,18.6,13.4,4.3,40,20,11,0.00,0.00,0,0,0,0.00
2013-4-23,74.3,60.1,44.2,26.3,18.2,8.7,46,23,11,0.00,0.00,0,0,0,0.00
2013-4-25,61.7,50.6,41.2,26.5,14.0,2.8,51,26,12,0.00,0.00,0,0,0,0.00
2013-4-26,65.7,52.0,35.8,31.6,15.2,4.4,60,28,13,0.00,0.00,0,0,0,0.00
2013-4-27,59.7,55.4,50.2,43.8,27.6,12.1,62,36,17,0.00,0.00,0,0,0,0.20
2013-4-28,69.4,61.6,56.3,45.1,32.4,18.7,66,37,15,0.00,0.00,0,0,0,0.63
2013-4-29,66.0,59.0,53.2,47.3,36.9,16.1,66,49,15,0.00,0.00,0,0,0,0.00
2013-4-30,82.4,64.4,48.0,44.2,27.9,13.9,69,34,9,0.00,0.00,0,0,0,0.00
2013-5-1,84.9,69.8,53.1,44.1,25.3,14.1,66,26,8,0.00,0.00,0,0,0,0.00
2013-5-2,79.5,68.5,56.1,34.4,20.4,12.1,42,18,10,0.00,0.00,0,0,0,0.00
2013-5-3,77.4,68.6,58.3,33.0,20.2,12.1,38,17,10,0.00,0.00,0,0,0,0.00
2013-5-4,75.7,64.3,55.9,44.1,18.7,10.3,64,21,10,0.00,0.00,0,0,0,0.20
2013-5-5,57.0,53.1,49.3,44.7,34.6,29.0,65,50,36,0.00,0.00,0,0,0,1.26
2013-5-6,68.5,57.7,52.0,44.3,35.6,15.8,66,47,15,0.00,0.00,0,0,0,0.47
2013-5-7,68.2,59.1,52.7,47.2,37.5,18.2,67,49,15,0.00,0.00,0,0,0,0.08
2013-5-8,69.6,60.7,55.9,53.3,43.5,29.0,68,55,26,0.00,0.00,0,0,0,0.24
2013-5-9,80.8,66.2,52.2,52.9,33.7,14.9,69,40,9,0.00,0.00,0,0,0,0.00
2013-5-10,73.4,66.2,58.3,48.1,37.8,27.4,65,37,18,0.00,0.00,0,0,0,0.08
2013-5-11,65.8,59.2,51.6,47.0,36.4,24.3,62,44,24,29.26,0.00,9,2,13,0.04
2013-5-12,61.3,52.8,43.0,41.6,17.4,2.3,64,29,12,29.41,29.23,11,3,18,0.04
2013-5-13,64.6,50.4,34.2,31.7,15.5,3.5,62,30,12,29.47,29.38,13,3,19,0.04
2013-5-14,83.3,62.6,39.4,25.6,18.6,8.6,55,24,9,29.44,29.18,15,4,22,0.04
2013-5-15,87.8,78.1,70.9,19.2,16.8,14.4,12,10,8,29.32,29.18,15,5,22,0.04
2013-5-16,76.8,69.7,61.0,52.5,30.2,12.1,61,26,11,29.29,29.21,16,3,22,0.04
2013-5-17,80.2,69.6,59.5,53.0,36.5,16.9,68,37,10,29.35,29.26,9,2,22,0.04
2013-5-18,76.8,69.5,64.9,55.9,47.2,35.6,67,47,23,29.32,29.23,9,3,22,0.20
2013-5-19,85.6,74.2,65.8,55.7,43.4,22.7,66,38,11,29.29,29.21,11,3,22,0.20
2013-5-20,87.1,76.0,66.4,46.7,34.8,17.6,42,25,8,29.35,29.21,9,4,22,0.16
2013-5-21,88.2,74.5,65.5,54.3,38.4,16.6,62,33,8,29.26,29.15,19,3,34,0.43
2013-5-22,80.6,72.1,63.0,52.6,35.9,16.6,62,30,9,29.21,29.09,13,4,20,0.43
2013-5-23,75.7,67.2,60.1,57.4,38.8,17.0,66,40,11,29.29,29.12,20,3,20,0.47
2013-5-24,66.7,57.8,48.7,45.4,18.8,8.1,59,24,12,29.56,29.29,16,4,20,0.31
2013-5-25,67.3,55.7,41.0,36.8,20.0,10.2,64,30,12,29.62,29.47,10,2,20,0.51
2013-5-26,73.2,63.6,53.4,37.5,22.7,12.1,51,25,11,29.56,29.44,9,2,20,0.31
2013-5-27,86.2,72.1,57.7,32.7,22.4,14.9,38,18,8,29.47,29.29,13,5,20,0.31
2013-5-28,87.1,77.7,64.2,38.8,22.1,15.9,39,14,8,29.38,29.26,15,5,20,0.51
2013-5-29,87.1,77.9,66.9,48.0,24.6,15.1,46,16,8,29.41,29.32,13,4,20,0.51
2013-5-30,89.2,76.9,62.8,53.8,31.9,16.6,65,27,8,29.44,29.32,10,4,20,0.51
2013-5-31,86.4,76.7,63.7,49.2,30.3,16.6,57,22,8,29.38,29.26,18,4,20,0.51
2013-6-1,85.5,79.1,69.1,47.0,31.7,23.0,45,19,11,29.29,29.12,17,6,23,0.51
2013-6-2,78.8,72.4,67.1,53.4,42.5,26.1,61,35,15,29.23,29.15,15,3,23,0.12
2013-6-3,76.8,68.0,59.9,53.8,37.4,14.5,66,40,10,29.32,29.18,8,2,23,0.12
2013-6-4,80.1,66.5,53.8,53.2,30.8,14.8,67,34,10,29.38,29.29,11,2,23,3.84
2013-6-5,85.3,70.0,58.6,52.2,36.3,16.6,57,34,8,29.32,29.15,17,3,23,0.04
2013-6-6,81.0,73.6,67.5,47.9,37.2,22.1,47,30,12,29.18,29.03,13,4,23,0.04
2013-6-7,75.2,69.2,65.1,54.8,42.8,24.8,64,41,16,29.15,29.03,8,2,23,4.80
2013-6-8,82.9,70.7,59.9,51.0,35.2,17.0,64,33,9,29.32,29.12,8,2,23,4.80
2013-6-9,79.3,68.6,61.0,57.0,47.3,34.4,64,49,20,29.35,29.23,13,4,23,0.79
2013-6-10,79.9,70.7,65.8,55.5,46.4,22.0,64,46,12,29.23,29.12,13,3,27,0.12
2013-6-11,86.2,73.7,61.5,59.1,38.7,16.6,66,37,8,29.29,29.18,10,2,27,0.12
2013-6-12,93.4,81.2,66.7,59.4,37.0,16.5,64,29,6,29.26,29.09,12,3,27,43.44
2013-6-13,84.7,77.2,62.8,56.8,39.9,24.4,62,28,13,29.21,28.97,19,5,27,0.20
2013-6-14,81.9,69.2,57.6,48.5,32.1,14.9,66,33,9,29.32,29.18,9,2,27,0.20
2013-6-15,86.4,72.4,57.2,51.6,31.4,16.6,64,30,8,29.41,29.26,8,2,27,51.12
2013-6-16,84.7,73.1,63.7,54.2,42.2,23.4,64,38,11,29.32,29.23,11,2,27,0.12
2013-6-17,88.2,75.1,64.6,58.9,44.9,24.5,66,40,10,29.26,29.15,17,2,27,0.43
2013-6-18,81.9,70.6,65.1,55.7,45.3,23.6,66,45,12,29.26,29.12,9,2,27,0.12
2013-6-19,84.0,70.9,62.4,55.0,40.2,16.6,66,41,9,29.38,29.21,8,1,27,0.12
2013-6-20,87.6,72.9,59.7,57.8,35.3,16.6,65,34,8,29.47,29.38,8,2,27,77.52
2013-6-21,88.7,74.2,61.9,54.2,39.9,17.9,66,36,8,29.47,29.38,8,1,27,77.52
2013-6-22,89.4,77.1,66.4,60.5,39.8,17.8,66,35,8,29.50,29.35,7,2,27,3.70
2013-6-23,89.4,77.4,64.2,54.3,35.0,16.6,63,28,8,29.44,29.32,10,2,27,3.70
2013-6-24,88.7,74.8,66.9,57.5,45.2,18.5,61,40,10,29.44,29.35,20,2,24,0.71
2013-6-25,91.2,78.8,67.1,60.8,45.9,24.9,65,38,10,29.38,29.23,10,3,10,0.71
2013-6-26,89.1,77.8,68.9,58.3,44.6,24.5,63,35,10,29.26,29.09,22,3,22,0.12
2013-6-27,85.3,74.5,67.5,59.2,51.6,39.5,66,47,20,29.12,29.03,23,2,23,0.04
2013-6-28,87.6,78.7,67.8,60.2,34.7,15.9,64,27,8,29.06,28.88,16,3,16,0.04
2013-6-29,84.0,72.6,62.1,57.3,37.8,16.9,65,37,9,28.97,28.88,28,2,28,0.75
2013-6-30,83.8,72.8,63.1,58.6,41.5,17.1,66,40,9,29.09,28.94,11,2,11,0.04
2013-7-1,82.8,71.3,64.6,57.0,45.4,22.7,66,44,11,29.18,29.06,13,3,13,0.08
2013-7-2,85.3,72.6,64.0,56.3,44.5,17.0,66,43,8,29.32,29.18,10,2,11,0.08
2013-7-3,80.4,73.3,68.5,58.2,51.1,36.2,65,48,21,29.41,29.29,8,2,9,0.00
2013-7-4,76.8,70.6,67.1,57.0,52.5,45.2,66,54,35,29.44,29.35,12,3,12,1.18
2013-7-5,82.9,73.2,67.6,56.2,50.4,31.8,66,47,16,29.41,29.35,14,4,14,0.08
2013-7-6,77.9,71.7,68.2,57.5,52.4,40.5,63,52,29,29.41,29.35,19,3,19,0.28
2013-7-7,84.0,73.9,67.8,56.9,44.9,22.7,65,43,11,29.41,29.32,10,2,10,0.67
2013-7-8,88.5,76.5,64.9,60.4,41.6,18.5,66,37,8,29.44,29.35,9,1,9,0.00
2013-7-9,91.4,79.5,68.9,62.4,45.6,24.7,64,37,9,29.41,29.29,0,0,0,0.04
2013-7-10,89.8,77.4,71.6,59.4,51.3,35.0,64,44,15,29.32,29.15,17,2,17,0.71
2013-7-11,87.8,75.1,69.4,62.4,47.9,22.8,66,44,10,29.26,29.18,14,1,14,0.71
2013-7-12,81.9,71.4,62.8,55.0,35.2,15.5,65,34,9,29.32,29.23,11,2,11,0.04
2013-7-13,80.8,69.7,61.9,57.2,45.5,32.3,62,44,21,29.38,29.29,16,2,16,0.08
2013-7-14,90.0,77.6,69.3,57.7,46.3,25.9,65,37,12,29.50,29.35,16,3,16,0.31
2013-7-15,91.6,79.4,68.9,59.0,41.4,17.5,64,33,7,29.59,29.50,9,2,9,0.31
2013-7-16,93.4,80.5,68.4,62.2,42.5,16.5,64,34,6,29.59,29.53,6,1,6,0.04
2013-7-17,91.6,78.5,71.1,62.9,52.8,24.7,63,45,9,29.59,29.44,8,1,8,0.04
2013-7-18,94.6,81.4,73.0,62.5,49.1,24.7,64,38,9,29.47,29.32,17,2,17,0.28
2013-7-19,89.6,79.9,70.9,62.3,47.6,24.7,63,36,10,29.35,29.23,11,2,11,0.28
2013-7-20,91.0,81.1,72.0,61.2,42.6,17.7,65,31,7,29.26,29.15,14,3,14,0.04
2013-7-21,85.8,76.4,71.2,61.2,51.7,34.5,64,46,16,29.26,29.15,10,2,10,0.20
2013-7-22,79.5,74.2,71.4,60.9,55.2,40.7,65,53,25,29.23,29.09,10,2,25,0.79
2013-7-23,88.3,78.8,72.0,61.2,46.8,24.5,63,39,10,29.15,29.03,12,3,12,0.79
2013-7-24,80.6,73.5,68.4,61.0,39.5,18.2,60,32,10,29.21,29.06,9,2,9,0.04
2013-7-25,80.1,70.4,62.2,54.8,34.9,14.9,64,35,10,29.35,29.21,10,2,10,0.04
2013-7-26,84.9,70.4,58.1,56.2,35.2,16.6,65,36,8,29.35,29.26,9,1,9,0.04
2013-7-27,81.3,71.0,65.8,54.2,44.2,22.0,61,43,12,29.26,29.15,14,1,14,0.35
2013-7-28,76.5,67.5,59.4,54.4,33.4,13.8,66,37,10,29.35,29.18,12,2,12,0.35
2013-7-29,80.4,66.7,53.4,48.6,31.4,14.9,65,35,10,29.47,29.35,9,2,11,0.04
2013-7-30,78.4,68.8,59.2,52.8,39.0,21.3,64,39,13,29.50,29.41,8,2,8,0.04
2013-7-31,74.5,69.7,65.7,54.2,47.7,38.2,62,47,30,29.41,29.23,10,2,10,0.08
2013-8-1,84.2,72.8,65.5,59.4,43.7,16.6,66,43,9,29.29,29.21,12,2,12,0.00
2013-8-2,83.7,71.4,60.1,57.1,35.3,16.6,64,35,9,29.32,29.26,8,1,8,0.04
2013-8-3,84.0,75.2,67.5,57.9,43.7,22.7,62,37,11,29.29,29.23,16,2,16,0.39
2013-8-4,80.4,72.4,62.4,58.3,38.2,15.1,65,37,10,29.38,29.29,8,2,12,0.39
2013-8-5,82.2,68.6,56.7,55.3,32.6,15.1,65,35,9,29.38,29.23,8,1,9,0.04
2013-8-6,84.7,74.0,65.7,52.1,38.1,22.6,49,30,11,29.26,29.21,9,3,9,0.04
2013-8-7,85.6,77.1,70.5,61.9,49.7,35.9,64,42,20,29.26,29.18,15,3,15,0.31
2013-8-8,85.6,77.1,70.7,62.3,51.0,37.8,65,43,19,29.26,29.18,10,2,10,0.43
2013-8-9,88.3,77.0,72.1,61.5,51.8,34.5,64,45,15,29.32,29.23,10,2,10,0.39
2013-8-10,85.6,75.6,71.8,62.3,54.9,36.7,65,52,18,29.38,29.29,15,1,15,0.75
2013-8-11,87.1,76.1,70.9,63.6,53.8,37.3,66,50,18,29.38,29.29,9,1,9,0.20
2013-8-12,81.5,74.3,68.7,61.8,53.9,44.2,66,50,29,29.35,29.21,13,2,13,0.59
2013-8-13,80.8,72.3,68.4,59.4,48.0,29.9,64,45,20,29.26,29.15,20,1,20,0.12
2013-8-14,75.4,66.0,57.7,43.9,26.0,12.4,54,26,10,29.41,29.26,13,2,13,0.12
2013-8-15,78.4,62.9,52.0,48.8,32.0,14.2,64,39,10,29.41,29.29,7,1,9,0.04
2013-8-16,82.8,68.9,58.5,49.4,35.5,21.9,62,35,11,29.38,29.32,10,2,10,0.04
2013-8-17,81.0,71.1,63.1,49.7,34.0,15.5,60,31,9,29.44,29.35,11,3,11,0.04
2013-8-18,77.9,70.0,65.5,53.4,45.4,34.0,61,44,21,29.44,29.38,8,2,8,0.04
2013-8-19,86.2,73.7,65.5,58.5,42.6,16.6,66,41,8,29.41,29.32,8,2,8,0.04
2013-8-20,86.2,75.4,65.3,56.4,42.0,23.4,64,36,11,29.44,29.35,11,3,12,0.04
2013-8-21,86.4,74.4,68.9,62.0,48.4,24.5,64,43,11,29.44,29.35,12,2,12,0.08
2013-8-22,87.4,76.7,66.4,62.0,44.8,24.7,65,39,11,29.41,29.29,11,2,11,0.04
2013-8-23,85.8,75.7,69.1,61.2,43.8,16.7,64,39,8,29.38,29.29,8,1,8,0.04
2013-8-24,69.4,66.3,65.3,50.4,48.0,33.9,57,52,27,29.53,29.38,5,0,5,0.04
2013-8-25,88.7,73.5,62.2,48.8,34.4,16.6,58,30,8,29.62,29.50,9,2,9,0.00
2013-8-26,87.3,74.3,63.0,55.3,40.4,23.1,64,36,11,29.56,29.35,9,1,9,0.00
2013-8-27,89.1,77.7,68.2,60.6,44.0,24.5,63,36,10,29.41,29.26,12,1,12,0.00
2013-8-28,91.0,82.0,74.1,55.7,39.2,24.5,51,25,10,29.29,29.21,13,3,13,0.00
2013-8-29,87.8,78.5,71.2,54.9,42.0,24.5,52,30,11,29.29,29.23,9,1,9,0.00
2013-8-30,90.7,76.3,67.5,56.9,44.0,17.5,64,41,7,29.26,29.15,9,1,9,0.00
2013-8-31,87.8,74.7,69.6,62.4,48.4,34.8,63,43,18,29.23,29.12,19,3,19,0.08
2013-9-1,86.4,75.4,67.8,54.7,41.8,23.1,60,34,11,29.18,29.06,10,2,10,0.24
2013-9-2,86.9,76.1,68.9,59.9,47.0,28.9,63,40,13,29.21,29.09,11,2,11,0.00
2013-9-3,81.5,72.1,63.0,55.9,38.2,14.9,64,37,9,29.32,29.15,11,2,11,0.00
2013-9-4,81.7,67.5,56.7,52.3,33.1,14.9,65,36,9,29.41,29.32,10,1,10,0.00
2013-9-5,84.6,68.8,57.6,53.4,35.1,16.6,64,37,8,29.47,29.38,8,1,8,0.00
2013-9-6,84.9,70.5,60.1,50.7,33.3,16.3,63,32,8,29.47,29.35,12,2,12,0.00
2013-9-7,87.1,71.0,57.0,48.8,33.0,16.6,57,31,8,29.38,29.23,10,1,10,0.00
2013-9-8,89.4,75.4,66.6,57.5,40.1,17.6,63,36,8,29.29,29.21,9,1,9,0.00
2013-9-9,90.1,77.3,66.7,56.6,39.2,17.5,64,34,7,29.35,29.26,11,2,11,0.00
2013-9-10,91.2,80.2,71.4,56.3,38.2,17.5,57,27,7,29.47,29.35,11,2,11,0.00
2013-9-11,88.5,77.4,69.8,60.7,44.0,22.7,63,34,10,29.47,29.32,13,1,13,0.00
2013-9-12,86.9,73.5,65.7,60.7,46.7,29.4,64,43,13,29.35,29.18,25,1,25,0.12
2013-9-13,71.4,65.3,51.8,54.8,26.2,8.4,60,27,12,29.32,29.18,15,3,15,0.12
2013-9-14,73.2,58.0,46.0,43.8,23.5,11.1,62,32,11,29.41,29.32,10,2,11,0.00
2013-9-15,79.9,64.5,49.8,41.8,27.6,14.9,57,31,10,29.41,29.32,12,3,12,0.00
2013-9-16,72.7,65.8,60.4,50.9,39.1,27.3,61,41,19,29.50,29.35,8,1,8,0.00
2013-9-17,78.8,66.3,55.9,44.6,28.9,14.8,61,29,10,29.53,29.38,11,4,12,0.00
2013-9-18,70.5,66.2,61.2,47.5,41.5,36.4,56,41,30,29.47,29.35,9,3,9,0.08
2013-9-19,81.3,72.6,65.5,52.7,41.6,32.0,54,35,17,29.41,29.29,10,2,10,0.00
2013-9-20,69.4,68.4,68.2,53.5,53.4,51.6,59,59,54,29.32,29.29,5,0,5,0.00
2013-9-21,68.4,68.4,68.4,53.5,53.5,53.5,59,59,59,29.29,29.29,0,0,3,0.00
2013-9-22,68.4,68.4,68.4,53.5,53.5,53.5,59,59,59,29.29,29.29,0,0,3,0.00
2013-9-23,68.4,68.4,68.4,53.5,53.5,53.5,59,59,59,29.29,29.29,0,0,3,0.00
2013-9-24,80.6,70.7,57.6,53.5,29.5,14.9,59,26,9,29.32,29.18,11,3,11,0.67
2013-9-25,76.8,67.5,62.4,48.2,37.4,20.3,58,35,13,29.18,29.12,11,3,11,0.00
2013-9-26,69.3,64.7,59.5,51.2,39.7,31.8,67,43,25,29.29,29.18,9,3,9,0.00
2013-9-27,69.1,69.1,69.1,31.8,31.8,31.8,25,25,25,29.29,29.29,5,5,8,0.00
2013-9-28,69.1,69.1,69.1,31.8,31.8,31.8,25,25,25,29.29,29.29,5,5,8,0.00
2013-9-29,69.1,69.1,69.1,31.8,31.8,31.8,25,25,25,29.29,29.29,5,5,8,0.00
2013-9-30,69.1,67.1,62.6,39.1,33.7,30.9,41,29,25,29.29,29.29,5,3,8,0.00
2013-10-1,79.5,67.2,56.3,49.9,32.8,15.5,62,35,10,29.38,29.29,8,2,11,0.00
2013-10-2,84.2,73.2,59.0,53.6,32.0,16.6,65,32,8,29.41,29.35,10,3,10,0.00
2013-10-3,84.2,84.2,84.2,16.6,16.6,16.6,8,8,8,29.35,29.35,4,4,6,0.00
2013-10-4,84.2,84.2,84.2,16.6,16.6,16.6,8,8,8,29.35,29.35,4,4,6,0.00
2013-10-5,84.2,84.2,84.2,16.6,16.6,16.6,8,8,8,29.35,29.35,4,4,6,0.00
2013-10-6,84.2,72.6,56.3,40.8,28.6,16.6,56,25,8,29.35,29.03,13,6,17,0.43
2013-10-7,56.3,56.3,56.3,40.8,40.8,40.8,56,56,56,29.15,29.15,4,4,5,2.16
2013-10-8,56.3,56.3,56.3,40.8,40.8,40.8,56,56,56,29.15,29.15,4,4,5,1.56
2013-10-9,56.3,56.3,56.3,40.8,40.8,40.8,56,56,56,29.15,29.15,4,4,5,1.80
2013-10-10,56.3,55.2,52.9,40.8,32.8,25.1,56,43,30,29.35,29.15,4,2,5,1.83
2013-10-11,80.1,60.7,46.9,46.5,27.1,13.7,63,34,10,29.38,29.29,12,1,12,0.28
2013-10-12,78.8,62.8,51.3,48.6,30.8,14.4,63,37,10,29.38,29.29,8,1,8,0.28
2013-10-13,79.9,65.8,55.2,52.3,33.2,14.9,64,37,10,29.53,29.38,11,2,11,0.28
2013-10-14,66.2,66.2,66.2,37.8,37.8,37.8,35,35,35,29.50,29.50,0,0,0,0.28
2013-10-15,66.2,66.2,66.2,37.8,37.8,37.8,35,35,35,29.50,29.50,0,0,0,0.28
2013-10-16,66.2,66.2,66.2,37.8,37.8,37.8,35,35,35,29.50,29.50,0,0,0,0.28
2013-10-17,66.2,66.2,66.2,37.8,37.8,37.8,35,35,35,29.50,29.50,0,0,0,0.28
2013-10-18,66.2,66.2,66.2,37.8,37.8,37.8,35,35,35,29.50,29.50,0,0,0,0.28
2013-10-19,66.2,66.2,66.2,37.8,37.8,37.8,35,35,35,29.50,29.50,0,0,0,0.28
2013-10-20,66.2,66.2,66.2,37.8,37.8,37.8,35,35,35,29.50,29.50,0,0,0,0.28
2013-10-21,66.2,66.2,66.2,37.8,37.8,37.8,35,35,35,29.50,29.50,0,0,0,0.28
2013-10-22,66.2,52.4,43.5,37.8,11.9,1.7,40,21,12,29.50,29.12,8,2,8,0.28
2013-10-23,48.6,44.0,34.5,31.7,19.5,5.0,53,38,20,29.35,29.00,17,4,17,0.08
2013-10-24,48.0,40.8,34.5,22.6,11.0,-0.1,51,32,14,29.56,29.32,22,2,22,0.00
2013-10-25,50.2,38.6,30.2,15.7,5.7,-4.7,48,27,14,29.74,29.56,10,2,10,0.00
2013-10-26,56.1,40.7,27.3,9.8,6.4,0.1,47,29,12,29.59,29.26,17,2,17,0.00
2013-10-27,65.3,50.0,35.8,25.3,13.1,-0.5,49,25,13,29.38,29.29,13,2,13,0.00
2013-10-28,57.0,53.2,46.8,42.2,36.1,24.3,58,52,41,29.47,29.35,4,1,4,0.04
2013-10-29,56.8,56.8,56.8,42.2,42.2,42.2,58,58,58,29.44,29.44,3,3,3,0.00
2013-10-30,56.8,56.8,56.8,42.2,42.2,42.2,58,58,58,29.44,29.44,3,3,3,0.00
2013-10-31,72.3,67.3,56.8,42.2,31.0,20.2,58,29,14,29.44,28.79,25,7,25,0.04
2013-11-1,71.8,62.5,56.3,40.7,20.9,10.2,46,22,12,29.06,28.82,37,6,37,0.55
2013-11-2,59.4,51.7,45.5,28.1,15.9,5.2,49,26,14,29.35,29.06,22,3,22,0.00
2013-11-3,57.4,45.7,37.9,28.3,15.6,2.3,52,33,13,29.62,29.35,10,2,10,0.04
2013-11-4,64.4,49.7,35.8,21.5,12.5,4.1,51,25,12,29.65,29.56,10,3,11,0.00
2013-11-5,68.9,55.2,46.0,17.9,10.9,2.0,32,18,12,29.68,29.53,13,3,13,0.00
2013-11-6,72.5,53.6,47.8,47.7,14.7,5.2,60,24,11,29.53,29.26,16,1,16,0.39
2013-11-7,61.5,47.0,33.6,48.0,14.5,-3.8,61,30,14,29.53,29.26,15,5,15,0.67
2013-11-8,54.5,41.3,32.0,17.5,4.5,-2.6,46,23,13,29.65,29.50,11,2,11,0.00
2013-11-9,63.5,48.2,29.7,12.6,7.6,-0.2,43,22,12,29.53,29.38,24,4,24,0.00
2013-11-10,56.3,49.4,33.1,8.2,3.3,-4.4,31,15,12,29.59,29.41,13,4,16,0.00
2013-11-11,65.3,45.9,28.6,14.6,7.3,-2.6,47,23,12,29.56,29.35,11,2,11,0.00
2013-11-12,51.3,37.0,24.1,15.2,-0.4,-11.0,47,22,14,29.85,29.35,25,4,25,0.12
2013-11-13,42.3,29.1,19.4,9.0,-1.4,-8.8,45,28,16,29.88,29.68,9,1,9,0.12
2013-11-14,59.7,38.2,22.3,10.5,2.1,-6.2,47,25,12,29.68,29.44,13,3,13,0.12
2013-11-15,57.6,48.9,30.4,9.7,1.9,-6.6,31,15,12,29.47,29.38,15,4,15,0.00
2013-11-16,66.0,62.5,57.6,25.9,21.7,5.3,25,21,12,29.38,0.00,19,7,19,0.00
2013-11-17,69.8,65.9,60.8,49.2,27.6,11.1,62,26,12,0.00,0.00,22,8,26,0.00
2013-11-18,61.9,55.3,51.3,19.9,15.0,7.8,27,21,14,0.00,0.00,10,1,10,0.00
2013-11-20,59.4,46.6,36.7,10.2,4.2,-1.5,31,18,12,29.50,29.47,10,3,10,0.00
2013-11-21,64.9,52.4,35.8,19.3,9.9,-0.2,36,19,13,29.59,29.47,13,4,13,0.00
2013-11-22,62.4,55.4,43.2,48.3,35.2,12.3,65,49,16,29.59,29.41,14,4,14,0.59
2013-11-23,44.1,37.9,26.4,13.3,1.1,-11.0,32,21,15,29.77,29.56,22,6,22,0.00
2013-11-24,30.4,24.6,18.3,-8.0,-11.8,-16.0,20,19,18,29.94,29.77,13,3,13,0.00
2013-11-25,47.5,34.3,21.0,17.0,-3.7,-13.8,50,20,14,29.77,29.47,10,4,10,0.00
2013-11-26,37.6,35.3,32.7,24.6,22.2,17.0,63,59,50,29.47,29.12,10,3,10,0.55
2013-11-27,32.7,29.6,21.6,21.0,4.2,-7.4,62,36,20,29.59,29.18,17,5,17,0.00
2013-11-28,39.4,27.2,17.1,6.2,-1.3,-8.2,49,31,16,29.74,29.56,11,2,11,0.12
2013-11-29,47.5,31.9,20.5,10.7,1.8,-6.4,50,30,14,29.85,29.71,8,2,8,0.00
2013-11-30,57.9,38.5,23.4,10.6,4.3,-3.1,51,27,12,29.74,29.50,12,3,12,0.00
2013-12-1,50.5,44.3,33.6,13.5,2.3,-4.7,33,18,14,29.50,29.23,8,3,8,0.00
2013-12-2,58.8,46.9,35.4,22.5,13.0,6.0,46,28,14,29.26,29.03,7,1,7,0.00
2013-12-3,57.9,50.7,40.5,34.0,24.0,15.8,60,37,19,29.15,29.06,9,4,9,0.00
2013-12-4,69.6,60.3,45.1,38.2,24.4,17.9,64,29,15,29.18,29.03,15,5,15,0.00
2013-12-5,70.3,59.3,39.0,44.8,30.2,22.0,53,35,17,29.38,29.12,19,5,19,1.18
2013-12-6,39.0,36.0,32.2,22.4,18.3,11.7,51,48,42,29.56,29.32,10,3,10,1.26
2013-12-7,32.5,30.7,29.3,11.7,5.0,-2.2,43,33,25,29.77,29.56,6,0,6,0.00
2013-12-8,37.0,33.2,29.3,25.3,16.0,-2.2,64,50,25,29.71,29.29,10,2,10,0.16
2013-12-9,40.6,36.1,30.9,29.8,14.4,3.8,65,42,30,29.50,29.29,17,5,17,0.04
2013-12-10,37.8,30.6,25.3,8.8,-1.6,-11.0,44,26,16,29.62,29.38,15,5,15,0.04
2013-12-11,44.8,31.3,20.1,13.5,-0.5,-9.4,53,28,15,29.74,29.59,17,4,17,0.00
2013-12-12,33.1,25.2,17.8,-5.8,-11.1,-16.5,27,19,18,29.83,29.62,11,4,11,0.00
2013-12-13,48.6,33.7,18.3,1.5,-3.0,-11.6,43,22,14,29.65,29.38,11,3,11,0.00
2013-12-14,50.9,42.5,37.0,32.9,17.1,-4.1,54,38,16,29.41,28.97,20,6,20,0.31
2013-12-15,38.1,33.1,31.5,20.2,6.6,-2.0,48,33,23,29.41,29.15,15,6,15,0.08
2013-12-16,48.9,37.3,31.8,25.7,6.6,-0.6,61,29,15,29.41,29.29,10,3,10,0.00
2013-12-17,47.8,42.2,33.1,20.3,5.5,-3.0,49,22,17,29.50,29.23,15,5,15,0.00
2013-12-18,46.6,35.3,25.5,9.7,-0.7,-7.4,43,22,14,29.59,29.41,14,4,14,0.00
2013-12-19,63.9,51.8,35.2,12.6,3.8,-5.2,17,14,12,29.47,29.29,17,4,17,0.00
2013-12-20,67.3,60.8,55.4,24.5,11.8,5.2,30,15,12,29.32,29.21,24,7,24,0.08
2013-12-21,74.1,67.2,60.4,45.8,28.7,16.5,48,25,13,29.21,28.94,23,8,23,0.00
2013-12-22,74.3,59.8,54.1,44.1,24.6,10.0,53,28,11,29.29,26.28,23,4,23,0.98
2013-12-23,54.0,37.3,31.1,32.6,7.9,-4.5,51,31,16,29.65,29.29,19,5,19,0.04
2013-12-24,31.1,25.2,17.6,1.1,-8.6,-16.2,33,22,18,29.80,29.62,20,5,20,0.00
2013-12-25,43.9,30.5,16.5,-0.4,-6.9,-13.9,35,20,15,29.74,29.50,13,3,13,0.00
2013-12-26,45.0,37.8,26.2,1.0,-2.8,-8.2,32,18,15,29.65,29.47,15,4,15,0.00
2013-12-27,54.1,34.6,22.3,9.8,1.8,-6.8,47,27,13,29.71,29.59,8,1,8,0.00
2013-12-28,51.1,37.8,25.0,19.3,3.8,-2.6,44,26,14,29.62,29.29,8,2,8,0.08
2013-12-29,45.1,41.3,36.0,31.6,22.3,14.4,65,48,31,29.29,29.12,19,3,19,0.71
2013-12-30,36.0,32.9,29.8,15.6,6.3,-0.4,43,32,23,29.50,29.29,13,4,13,0.00
2013-12-31,38.8,30.5,24.6,6.6,-1.7,-8.6,43,26,16,29.68,29.47,15,4,15,0.00
2014-1-1,52.3,36.5,24.8,10.1,3.4,-4.2,51,28,13,29.59,29.29,12,3,12,0.00
2014-1-2,41.5,31.5,15.8,26.9,6.2,-14.6,59,35,18,29.50,29.03,23,7,23,0.16